Terreton, ID

5:58 PM MDT on August 21, 2014 (GMT -0600)
ITD Kettle Butte HWY-20 ID US | Change Station
CLOSE
Current Station
Personal Weather Station
Location: Idaho Falls, ID
Elevation: 5111 ft
Nearby Weather Stations

Elev 5111 ft 43.55 °N, 112.42 °W | Updated 58 minutes ago

Overcast
Overcast
62 °F
Feels Like 62 °F
N
19
Wind Variable Wind from North
Gusts 23.0 mph

Today
High -- | Low -- °F
--% Chance of Precip.
Yesterday
High -- | Low -- °F
Precip. -- in
6:40 AM 8:24 PM
Waning Crescent, 11% visible
Pressure 30.00 in
Visibility 10.0 miles
Clouds Mostly Cloudy 5500 ft
Mostly Cloudy 7500 ft
Dew Point 50 °F
Humidity 65%
Rainfall -999.00 in
Snow Depth Not available.
UV 1 out of 12
Pollen 7.80 out of 12
PM2.5 Good
Flu Activity Not available.
METAR KIDA 212353Z 36015G26KT 10SM TS BKN055 BKN075 16/08 A3008 RMK AO2 PK WND 33030/2336 WSHFT 2316 LTG DSNT ALQDS TSB41 SLP158 TS N MOV NE SHRA ALQDS MOV NE T01610078 10239 20156 55000

More Conditions Fewer Conditions

Pressure 30.00 in
Visibility 10.0 miles
Clouds Mostly Cloudy 5500 ft
Mostly Cloudy 7500 ft
Dew Point 50 °F
Humidity 65%
Rainfall -999.00 in
Snow Depth Not available.
UV 1 out of 12
Pollen 7.80 out of 12
PM2.5 Good
Flu Activity Not available.
METAR KIDA 212353Z 36015G26KT 10SM TS BKN055 BKN075 16/08 A3008 RMK AO2 PK WND 33030/2336 WSHFT 2316 LTG DSNT ALQDS TSB41 SLP158 TS N MOV NE SHRA ALQDS MOV NE T01610078 10239 20156 55000

More Conditions Fewer Conditions

10-Day Weather Forecast

Almanac

Astronomy

Aug. 21, 2014 Rise Set
Actual Time 6:40 AM MDT 8:24 PM MDT
Civil Twilight 6:10 AM MDT 8:54 PM MDT
Nautical Twilight 5:32 AM MDT 9:31 PM MDT
Astronomical Twilight 4:52 AM MDT 10:11 PM MDT
Moon 3:11 AM MDT 5:58 PM MDT
Length of Visible Light 14h 44m
Length of Day
13h 43m
Tomorrow will be 2m 47s shorter.
Waning Crescent, 11% of the Moon is Illuminated
Today
Waning Crescent
Aug 25
New
Sep 2
First Quarter
Sep 8
Full
Sep 15
Last Quarter

Today's Extremes

State Highs State Lows

Community

WunderPhotos

Upload Photos

1,746,055 photos uploaded!

Nearby

Air Quality

  Air Quality AQ Index Pollutant
Yesterday Good
PM2.5
Current Good
PM2.5
Thursday Good
PM2.5

Snow Depth

Station Depth Elevation
Sheep Mountain 0 in 6570 ft
Bear Canyon 0 in 7900 ft
Wildhorse Divide 0 in 6490 ft
Swede Peak 0 in 7640 ft
Somsen Ranch 0 in 6800 ft

Earthquake Activity

City Distance Mag. Time & Date
No recent earthquake activity has been reported nearby.
Minimum magnitude displayed is 2.5.

Coastal Water Temperatures

Place Temperature
No Stations Reporting

Nearby Weather Stations